createdAt,value
2018-11-04T00:01:36.541Z,99229.10
2018-11-04T00:04:03.873Z,99228.64
2018-11-04T00:06:31.171Z,99236.06
2018-11-04T00:08:58.541Z,99230.83
2018-11-04T00:11:25.804Z,99227.34
2018-11-04T00:13:53.076Z,99221.27
2018-11-04T00:16:20.344Z,99212.09
2018-11-04T00:18:47.701Z,99219.52
2018-11-04T00:21:14.904Z,99216.89
2018-11-04T00:23:42.191Z,99216.89
2018-11-04T00:26:09.498Z,99216.89
2018-11-04T00:28:36.834Z,99205.12
2018-11-04T00:31:04.215Z,99207.73
2018-11-04T00:33:31.478Z,99210.80
2018-11-04T00:35:58.715Z,99208.16
2018-11-04T00:38:25.975Z,99208.16
2018-11-04T00:40:53.254Z,99199.00
2018-11-04T00:43:20.587Z,99201.19
2018-11-04T00:45:47.863Z,99192.92
2018-11-04T00:48:15.186Z,99190.73
2018-11-04T00:50:42.460Z,99191.60
2018-11-04T00:53:09.776Z,99185.06
2018-11-04T00:55:41.836Z,99179.85
2018-11-04T00:58:09.095Z,99182.47
2018-11-04T01:00:37.049Z,99172.84
2018-11-04T01:03:05.420Z,99176.80
2018-11-04T01:05:32.649Z,99177.66
2018-11-04T01:07:59.998Z,99174.18
2018-11-04T01:10:27.251Z,99180.72
2018-11-04T01:12:54.522Z,99175.93
2018-11-04T01:15:21.862Z,99168.92
2018-11-04T01:17:51.287Z,99164.16
2018-11-04T01:23:08.509Z,99158.91
2018-11-04T01:25:35.764Z,99165.47
2018-11-04T01:28:03.097Z,99158.94
2018-11-04T01:30:30.475Z,99155.87
2018-11-04T01:32:57.721Z,99148.02
2018-11-04T01:35:25.640Z,99147.59
2018-11-04T01:37:52.851Z,99143.23
2018-11-04T01:40:20.172Z,99144.10
2018-11-04T01:42:47.416Z,99138.86
2018-11-04T01:45:14.722Z,99131.88
2018-11-04T01:47:42.005Z,99129.70
2018-11-04T01:50:11.230Z,99118.38
2018-11-04T01:52:38.567Z,99117.50
2018-11-04T01:55:06.164Z,99110.11
2018-11-04T01:57:33.458Z,99108.35
2018-11-04T02:00:00.744Z,99109.25
2018-11-04T02:02:28.014Z,99107.05
2018-11-04T02:04:55.340Z,99095.72
2018-11-04T02:07:23.312Z,99097.45
2018-11-04T02:09:50.652Z,99091.80
2018-11-04T02:12:18.029Z,99083.50
2018-11-04T02:14:45.351Z,99087.02
2018-11-04T02:17:12.607Z,99083.09
2018-11-04T02:19:39.880Z,99082.64
2018-11-04T02:22:07.177Z,99070.87
2018-11-04T02:24:34.450Z,99060.86
2018-11-04T02:27:01.712Z,99067.83
2018-11-04T02:29:28.967Z,99064.33
2018-11-04T02:31:56.279Z,99069.16
2018-11-04T02:34:23.594Z,99060.84
2018-11-04T02:36:51.527Z,99061.73
2018-11-04T02:39:18.946Z,99052.56
2018-11-04T02:41:46.223Z,99041.69
2018-11-04T02:44:13.603Z,99037.77
2018-11-04T02:46:40.908Z,99036.89
2018-11-04T02:49:08.148Z,99041.69
2018-11-04T02:51:36.042Z,99033.42
2018-11-04T02:54:03.560Z,99035.59
2018-11-04T02:56:30.917Z,99028.62
2018-11-04T02:58:58.217Z,99029.06
2018-11-04T03:01:25.640Z,99030.80
2018-11-04T03:03:52.876Z,99027.30
2018-11-04T03:06:20.804Z,99029.47
2018-11-04T03:08:48.058Z,99022.52
2018-11-04T03:11:15.468Z,99026.44
2018-11-04T03:13:43.118Z,99019.88
2018-11-04T03:16:10.449Z,99018.59
2018-11-04T03:18:37.697Z,99012.48
2018-11-04T03:21:05.816Z,99010.30
2018-11-04T03:23:33.081Z,99009.00
2018-11-04T03:26:00.351Z,99003.33
2018-11-04T03:28:27.681Z,99002.45
2018-11-04T03:30:54.982Z,98999.41
2018-11-04T03:33:22.987Z,99003.31
2018-11-04T03:35:50.336Z,99000.27
2018-11-04T03:38:17.551Z,99009.86
2018-11-04T03:40:44.855Z,99003.78
2018-11-04T03:43:12.801Z,99004.22
2018-11-04T03:45:40.044Z,99001.58
2018-11-04T03:48:07.937Z,99002.45
2018-11-04T03:50:35.184Z,98999.83
2018-11-04T03:53:05.052Z,98998.09
2018-11-04T03:55:32.694Z,98991.12
2018-11-04T03:58:00.034Z,98988.50
2018-11-04T04:00:27.426Z,98986.75
2018-11-04T04:02:54.686Z,98987.62
2018-11-04T04:05:22.015Z,98989.38
2018-11-04T04:07:49.359Z,98981.97
2018-11-04T04:10:16.609Z,98989.38
2018-11-04T04:12:43.924Z,98975.02
2018-11-04T04:15:11.516Z,98972.84
2018-11-04T04:17:38.964Z,98963.23
2018-11-04T04:20:06.577Z,98966.28
2018-11-04T04:22:35.448Z,98961.93
2018-11-04T04:25:03.805Z,98955.41
2018-11-04T04:27:32.514Z,98948.43
2018-11-04T04:29:59.865Z,98953.20
2018-11-04T04:32:27.090Z,98955.38
2018-11-04T04:34:54.432Z,98947.09
2018-11-04T04:37:21.690Z,98945.34
2018-11-04T04:39:48.888Z,98944.92
2018-11-04T04:42:16.186Z,98935.33
2018-11-04T04:44:43.441Z,98934.02
2018-11-04T04:47:10.768Z,98935.76
2018-11-04T04:49:38.071Z,98940.98
2018-11-04T04:52:05.473Z,98935.33
2018-11-04T04:54:32.735Z,98943.19
2018-11-04T04:57:00.035Z,98935.78
2018-11-04T04:59:27.331Z,98940.56
2018-11-04T05:01:54.780Z,98934.47
2018-11-04T05:04:22.015Z,98927.08
2018-11-04T05:06:49.297Z,98927.50
2018-11-04T05:09:16.569Z,98923.13
2018-11-04T05:11:44.130Z,98924.42
2018-11-04T05:14:11.402Z,98917.88
2018-11-04T05:16:39.137Z,98917.44
2018-11-04T05:19:06.576Z,98914.41
2018-11-04T05:21:33.864Z,98913.53
2018-11-04T05:24:01.140Z,98910.90
2018-11-04T05:26:28.572Z,98919.16
2018-11-04T05:28:55.872Z,98915.23
2018-11-04T05:31:23.123Z,98916.11
2018-11-04T05:33:50.425Z,98917.41
2018-11-04T05:36:18.293Z,98913.48
2018-11-04T05:38:45.560Z,98916.13
2018-11-04T05:41:12.920Z,98915.69
2018-11-04T05:43:40.171Z,98916.99
2018-11-04T05:46:07.511Z,98911.76
2018-11-04T05:48:34.815Z,98916.99
2018-11-04T05:51:02.111Z,98920.03
2018-11-04T05:53:29.494Z,98919.59
2018-11-04T05:55:56.885Z,98912.18
2018-11-04T05:58:24.803Z,98918.30
2018-11-04T06:00:52.230Z,98914.36
2018-11-04T06:03:20.666Z,98914.38
2018-11-04T06:05:48.025Z,98917.88
2018-11-04T06:08:15.388Z,98915.26
2018-11-04T06:10:42.827Z,98914.37
2018-11-04T06:13:10.796Z,98925.70
2018-11-04T06:15:39.968Z,98929.19
2018-11-04T06:18:07.411Z,98923.98
2018-11-04T06:20:34.840Z,98930.09
2018-11-04T06:25:36.182Z,98933.10
2018-11-04T06:28:03.697Z,98935.30
2018-11-04T06:30:31.251Z,98932.68
2018-11-04T06:33:04.085Z,98938.33
2018-11-04T06:35:31.541Z,98944.00
2018-11-04T06:37:59.028Z,98938.34
2018-11-04T06:40:26.370Z,98944.02
2018-11-04T06:42:53.745Z,98942.27
2018-11-04T06:45:21.247Z,98937.04
2018-11-04T06:47:48.662Z,98937.05
2018-11-04T06:50:17.481Z,98934.42
2018-11-04T06:52:45.629Z,98923.53
2018-11-04T06:55:14.609Z,98930.48
2018-11-04T06:57:42.674Z,98932.23
2018-11-04T07:00:11.684Z,98944.88
2018-11-04T07:02:40.378Z,98937.89
2018-11-04T07:05:08.020Z,98942.26
2018-11-04T07:07:36.181Z,98933.11
2018-11-04T07:10:04.943Z,98934.37
2018-11-04T07:12:32.523Z,98934.81
2018-11-04T07:15:00.915Z,98931.33
2018-11-04T07:17:28.396Z,98935.68
2018-11-04T07:19:55.920Z,98941.78
2018-11-04T07:22:23.400Z,98941.31
2018-11-04T07:24:50.848Z,98945.69
2018-11-04T07:27:20.130Z,98937.84
2018-11-04T07:29:48.319Z,98938.26
2018-11-04T07:32:16.353Z,98943.92
2018-11-04T07:34:43.772Z,98935.63
2018-11-04T07:37:11.330Z,98925.58
2018-11-04T07:39:39.451Z,98929.95
2018-11-04T07:42:07.008Z,98935.61
2018-11-04T07:44:35.200Z,98925.60
2018-11-04T07:47:03.678Z,98924.30
2018-11-04T07:49:31.067Z,98926.87
2018-11-04T07:51:59.156Z,98922.08
2018-11-04T07:54:27.209Z,98921.22
2018-11-04T07:56:55.559Z,98918.18
2018-11-04T07:59:23.174Z,98910.75
2018-11-04T08:01:52.466Z,98915.11
2018-11-04T08:04:21.260Z,98912.91
2018-11-04T08:06:49.360Z,98915.95
2018-11-04T08:09:17.060Z,98907.69
2018-11-04T08:11:44.958Z,98900.27
2018-11-04T08:14:12.707Z,98906.34
2018-11-04T08:16:40.222Z,98905.45
2018-11-04T08:19:08.447Z,98907.16
2018-11-04T08:21:36.075Z,98909.36
2018-11-04T08:24:03.995Z,98904.13
2018-11-04T08:26:32.995Z,98906.32
2018-11-04T08:29:01.471Z,98903.67
2018-11-04T08:31:29.228Z,98905.38
2018-11-04T08:33:56.754Z,98894.89
2018-11-04T08:36:24.272Z,98893.98
2018-11-04T08:38:53.162Z,98898.31
2018-11-04T08:41:21.133Z,98896.53
2018-11-04T08:43:49.144Z,98891.76
2018-11-04T08:46:18.276Z,98889.14
2018-11-04T08:48:46.488Z,98889.10
2018-11-04T08:51:14.007Z,98889.95
2018-11-04T08:53:42.308Z,98887.75
2018-11-04T08:56:21.734Z,98889.48
2018-11-04T08:58:52.791Z,98870.73
2018-11-04T09:01:20.672Z,98864.57
2018-11-04T09:03:48.215Z,98865.41
2018-11-04T09:06:16.195Z,98856.23
2018-11-04T09:08:55.236Z,98857.97
2018-11-04T09:11:29.090Z,98854.41
2018-11-04T09:13:57.408Z,98849.12
2018-11-04T09:16:24.798Z,98859.56
2018-11-04T09:18:52.393Z,98848.17
2018-11-04T09:21:20.155Z,98847.31
2018-11-04T09:23:47.641Z,98858.63
2018-11-04T09:26:15.796Z,98856.86
2018-11-04T09:28:43.129Z,98858.61
2018-11-04T09:31:10.943Z,98857.75
2018-11-04T09:33:40.853Z,98847.70
2018-11-04T09:36:08.336Z,98853.39
2018-11-04T09:38:37.180Z,98857.27
2018-11-04T09:41:04.699Z,98850.67
2018-11-04T09:43:32.566Z,98855.89
2018-11-04T09:46:00.060Z,98859.75
2018-11-04T09:48:27.433Z,98862.45
2018-11-04T09:50:55.287Z,98857.23
2018-11-04T09:53:22.756Z,98844.52
2018-11-04T09:55:50.186Z,98845.36
2018-11-04T09:58:17.636Z,98834.90
2018-11-04T10:00:45.132Z,98830.55
2018-11-04T10:03:12.614Z,98830.08
2018-11-04T10:05:40.077Z,98825.42
2018-11-04T10:08:07.609Z,98821.88
2018-11-04T10:10:35.069Z,98822.69
2018-11-04T10:13:02.556Z,98816.55
2018-11-04T10:15:30.099Z,98821.30
2018-11-04T10:17:58.129Z,98819.58
2018-11-04T10:20:25.860Z,98818.18
2018-11-04T10:22:53.134Z,98819.43
2018-11-04T10:25:39.153Z,98817.28
2018-11-04T10:28:06.625Z,98823.34
2018-11-04T10:30:34.128Z,98820.70
2018-11-04T10:33:01.633Z,98813.34
2018-11-04T10:35:29.157Z,98818.16
2018-11-04T10:37:56.495Z,98816.41
2018-11-04T10:40:23.981Z,98821.60
2018-11-04T10:42:51.385Z,98820.69
2018-11-04T10:45:18.920Z,98803.19
2018-11-04T10:47:46.408Z,98801.41
2018-11-04T10:50:13.975Z,98795.25
2018-11-04T10:52:41.500Z,98788.69
2018-11-04T10:55:10.030Z,98783.02
2018-11-04T10:57:37.635Z,98771.63
2018-11-04T11:00:11.942Z,98771.58
2018-11-04T11:02:39.453Z,98761.56
2018-11-04T11:05:06.844Z,98762.02
2018-11-04T11:07:34.290Z,98755.88
2018-11-04T11:10:01.702Z,98756.78
2018-11-04T11:12:29.153Z,98742.87
2018-11-04T11:14:57.351Z,98747.69
2018-11-04T11:17:25.733Z,98745.91
2018-11-04T11:19:54.170Z,98736.73
2018-11-04T11:22:21.937Z,98737.63
2018-11-04T11:25:08.754Z,98735.03
2018-11-04T11:27:36.620Z,98728.42
2018-11-04T11:30:04.261Z,98726.22
2018-11-04T11:32:31.855Z,98723.13
2018-11-04T11:34:59.398Z,98725.75
2018-11-04T11:37:26.931Z,98723.97
2018-11-04T11:39:54.337Z,98727.01
2018-11-04T11:42:21.905Z,98713.84
2018-11-04T11:44:49.388Z,98717.25
2018-11-04T11:47:16.797Z,98718.03
2018-11-04T11:49:44.150Z,98717.53
2018-11-04T11:52:11.684Z,98709.63
2018-11-04T11:54:39.666Z,98705.65
2018-11-04T11:57:07.043Z,98696.02
2018-11-04T11:59:34.642Z,98695.09
2018-11-04T12:02:02.258Z,98690.66
2018-11-04T12:04:29.689Z,98683.20
2018-11-04T12:06:57.192Z,98683.55
2018-11-04T12:09:24.607Z,98676.52
2018-11-04T12:11:53.506Z,98674.78
2018-11-04T12:14:20.949Z,98683.59
2018-11-04T12:16:48.354Z,98680.09
2018-11-04T12:19:15.772Z,98677.53
2018-11-04T12:21:43.272Z,98662.66
2018-11-04T12:24:10.728Z,98655.66
2018-11-04T12:26:39.028Z,98656.55
2018-11-04T12:29:07.846Z,98651.30
2018-11-04T12:31:35.563Z,98651.72
2018-11-04T12:34:03.327Z,98643.84
2018-11-04T12:36:30.995Z,98656.06
2018-11-04T12:38:58.845Z,98656.55
2018-11-04T12:41:26.468Z,98646.50
2018-11-04T12:43:55.297Z,98656.55
2018-11-04T12:46:23.567Z,98656.55
2018-11-04T12:48:51.371Z,98655.72
2018-11-04T12:51:19.040Z,98653.09
2018-11-04T12:53:47.174Z,98657.95
2018-11-04T12:56:17.540Z,98655.75
2018-11-04T12:58:47.681Z,98653.09
2018-11-04T13:01:17.221Z,98643.94
2018-11-04T13:03:46.161Z,98637.77
2018-11-04T13:06:14.629Z,98638.59
2018-11-04T13:08:43.375Z,98634.16
2018-11-04T13:11:11.824Z,98639.91
2018-11-04T13:13:40.107Z,98620.59
2018-11-04T13:16:12.616Z,98620.59
2018-11-04T13:18:40.977Z,98615.41
2018-11-04T13:21:09.103Z,98611.95
2018-11-04T13:23:36.767Z,98604.53
2018-11-04T13:26:04.879Z,98598.83
2018-11-04T13:28:32.649Z,98596.20
2018-11-04T13:31:01.125Z,98591.37
2018-11-04T13:33:29.277Z,98593.52
2018-11-04T13:35:57.335Z,98595.73
2018-11-04T13:38:25.681Z,98589.97
2018-11-04T13:40:53.859Z,98592.63
2018-11-04T13:43:21.669Z,98587.76
2018-11-04T13:45:49.564Z,98585.58
2018-11-04T13:48:17.530Z,98583.89
2018-11-04T13:50:45.283Z,98586.52
2018-11-04T13:53:12.858Z,98581.33
2018-11-04T13:55:40.382Z,98587.48
2018-11-04T13:58:07.804Z,98580.02
2018-11-04T14:00:35.233Z,98578.71
2018-11-04T14:03:02.880Z,98579.12
2018-11-04T14:05:30.341Z,98581.78
2018-11-04T14:07:57.743Z,98576.02
2018-11-04T14:10:25.251Z,98573.43
2018-11-04T14:12:52.890Z,98562.08
2018-11-04T14:15:20.314Z,98557.62
2018-11-04T14:17:47.784Z,98556.80
2018-11-04T14:20:15.221Z,98554.17
2018-11-04T14:22:42.701Z,98561.56
2018-11-04T14:25:11.217Z,98553.66
2018-11-04T14:27:39.038Z,98563.28
2018-11-04T14:30:09.358Z,98569.80
2018-11-04T14:32:37.065Z,98573.27
2018-11-04T14:35:05.933Z,98566.25
2018-11-04T14:37:33.470Z,98557.93
2018-11-04T14:40:01.012Z,98554.92
2018-11-04T14:42:28.553Z,98555.80
2018-11-04T14:44:56.128Z,98560.63
2018-11-04T14:47:23.682Z,98559.77
2018-11-04T14:49:51.047Z,98555.38
2018-11-04T14:52:18.564Z,98547.92
2018-11-04T14:54:46.235Z,98548.81
2018-11-04T14:57:13.977Z,98543.57
2018-11-04T14:59:42.121Z,98541.33
2018-11-04T15:02:09.591Z,98541.77
2018-11-04T15:04:37.447Z,98531.28
2018-11-04T15:07:05.419Z,98527.83
2018-11-04T15:09:32.927Z,98522.66
2018-11-04T15:12:00.394Z,98511.75
2018-11-04T15:14:27.873Z,98516.95
2018-11-04T15:16:55.335Z,98507.33
2018-11-04T15:19:23.801Z,98504.28
2018-11-04T15:21:52.730Z,98519.65
2018-11-04T15:24:20.219Z,98513.09
2018-11-04T15:26:48.006Z,98516.61
2018-11-04T15:29:15.612Z,98524.93
2018-11-04T15:31:43.175Z,98520.55
2018-11-04T15:34:10.705Z,98518.82
2018-11-04T15:36:38.304Z,98523.20
2018-11-04T15:39:07.932Z,98523.63
2018-11-04T15:41:35.480Z,98520.58
2018-11-04T15:44:03.005Z,98518.45
2018-11-04T15:46:30.309Z,98515.82
2018-11-04T15:48:57.802Z,98526.34
2018-11-04T15:51:25.068Z,98522.03
2018-11-04T15:53:52.392Z,98524.66
2018-11-04T15:56:19.739Z,98524.20
2018-11-04T15:58:47.068Z,98518.55
2018-11-04T16:01:14.342Z,98520.27
2018-11-04T16:03:41.613Z,98519.45
2018-11-04T16:06:08.930Z,98522.55
2018-11-04T16:08:36.174Z,98527.38
2018-11-04T16:11:03.512Z,98526.93
2018-11-04T16:13:30.875Z,98527.38
2018-11-04T16:15:58.219Z,98521.27
2018-11-04T16:18:25.494Z,98518.61
2018-11-04T16:20:52.773Z,98519.92
2018-11-04T16:23:20.030Z,98515.99
2018-11-04T16:25:47.354Z,98512.95
2018-11-04T16:28:14.680Z,98500.25
2018-11-04T16:30:41.996Z,98503.33
2018-11-04T16:33:09.343Z,98506.81
2018-11-04T16:35:36.658Z,98507.30
2018-11-04T16:38:04.039Z,98508.13
2018-11-04T16:40:31.355Z,98510.81
2018-11-04T16:42:58.750Z,98520.41
2018-11-04T16:45:26.014Z,98519.12
2018-11-04T16:47:53.267Z,98509.92
2018-11-04T16:50:20.607Z,98503.81
2018-11-04T16:52:47.845Z,98513.85
2018-11-04T16:55:15.155Z,98525.66
2018-11-04T16:57:42.948Z,98523.37
2018-11-04T17:00:10.995Z,98521.62
2018-11-04T17:02:38.598Z,98516.23
2018-11-04T17:10:51.300Z,98519.82
2018-11-04T17:13:18.675Z,98517.23
2018-11-04T17:15:46.754Z,98514.75
2018-11-04T17:18:14.014Z,98512.73
2018-11-04T17:20:41.427Z,98504.86
2018-11-04T17:23:08.740Z,98495.97
2018-11-04T17:25:36.039Z,98490.08
2018-11-04T17:28:04.204Z,98491.23
2018-11-04T17:30:31.563Z,98478.89
2018-11-04T17:32:59.771Z,98480.62
2018-11-04T17:35:27.170Z,98476.77
2018-11-04T17:37:55.756Z,98472.23
2018-11-04T17:40:23.380Z,98472.28
2018-11-04T17:42:50.767Z,98472.42
2018-11-04T17:45:18.180Z,98479.10
2018-11-04T17:47:46.280Z,98473.48
2018-11-04T17:50:16.054Z,98470.41
2018-11-04T17:52:43.904Z,98473.55
2018-11-04T17:55:11.307Z,98472.36
2018-11-04T17:57:39.165Z,98476.30
2018-11-04T18:00:07.863Z,98472.66
2018-11-04T18:02:35.117Z,98467.82
2018-11-04T18:05:02.467Z,98459.42
2018-11-04T18:07:29.928Z,98457.17
2018-11-04T18:09:57.300Z,98460.73
2018-11-04T18:12:24.848Z,98458.52
2018-11-04T18:14:52.271Z,98466.47
2018-11-04T18:17:19.826Z,98468.19
2018-11-04T18:19:47.300Z,98454.17
2018-11-04T18:22:14.751Z,98460.70
2018-11-04T18:24:46.680Z,98459.91
2018-11-04T18:27:27.115Z,98459.47
2018-11-04T18:29:54.503Z,98455.53
2018-11-04T18:32:23.183Z,98456.91
2018-11-04T18:34:50.649Z,98457.03
2018-11-04T18:37:17.960Z,98451.33
2018-11-04T18:39:45.272Z,98443.42
2018-11-04T18:42:13.391Z,98448.22
2018-11-04T18:44:40.970Z,98447.39
2018-11-04T18:47:08.243Z,98443.38
2018-11-04T18:49:35.526Z,98445.93
2018-11-04T18:52:03.241Z,98441.55
2018-11-04T18:54:30.580Z,98452.41
2018-11-04T18:56:58.019Z,98446.23
2018-11-04T18:59:25.364Z,98442.70
2018-11-04T19:01:53.943Z,98437.04
2018-11-04T19:04:21.863Z,98432.36
2018-11-04T19:06:49.425Z,98432.36
2018-11-04T19:09:17.359Z,98431.98
2018-11-04T19:11:44.818Z,98428.54
2018-11-04T19:14:12.221Z,98435.59
2018-11-04T19:16:51.942Z,98436.94
2018-11-04T19:19:19.586Z,98434.39
2018-11-04T19:21:48.746Z,98428.31
2018-11-04T19:24:16.502Z,98416.02
2018-11-04T19:26:44.206Z,98420.45
2018-11-04T19:29:13.628Z,98419.14
2018-11-04T19:31:42.162Z,98413.89
2018-11-04T19:34:10.961Z,98414.34
2018-11-04T19:36:38.846Z,98417.41
2018-11-04T19:39:08.517Z,98420.04
2018-11-04T19:41:36.426Z,98418.77
2018-11-04T19:44:09.374Z,98423.97
2018-11-04T19:46:38.809Z,98424.39
2018-11-04T19:49:10.992Z,98416.55
2018-11-04T19:51:45.318Z,98426.15
2018-11-04T19:54:14.258Z,98425.25
2018-11-04T19:56:43.132Z,98418.69
2018-11-04T19:59:12.112Z,98415.13
2018-11-04T20:01:41.237Z,98420.78
2018-11-04T20:04:10.807Z,98406.84
2018-11-04T20:06:39.104Z,98410.37
2018-11-04T20:09:14.232Z,98403.44
2018-11-04T20:11:46.013Z,98406.09
2018-11-04T20:14:22.880Z,98407.37
2018-11-04T20:16:51.835Z,98403.89
2018-11-04T20:19:26.159Z,98408.20
2018-11-04T20:21:55.316Z,98414.31
2018-11-04T20:24:29.495Z,98406.88
2018-11-04T20:26:57.655Z,98406.44
2018-11-04T20:29:28.176Z,98400.28
2018-11-04T20:32:02.364Z,98404.14
2018-11-04T20:34:33.632Z,98397.66
2018-11-04T20:37:01.820Z,98408.56
2018-11-04T20:39:34.865Z,98402.91
2018-11-04T20:42:03.471Z,98398.56
2018-11-04T20:44:33.948Z,98396.39
2018-11-04T20:47:03.286Z,98392.01
2018-11-04T20:49:36.843Z,98387.58
2018-11-04T20:52:06.570Z,98385.82
2018-11-04T20:54:35.710Z,98381.44
2018-11-04T20:57:09.903Z,98381.02
2018-11-04T20:59:40.612Z,98381.84
2018-11-04T21:02:08.530Z,98379.67
2018-11-04T21:04:36.302Z,98367.00
2018-11-04T21:07:03.934Z,98368.73
2018-11-04T21:09:31.690Z,98371.80
2018-11-04T21:11:59.708Z,98367.87
2018-11-04T21:14:27.241Z,98362.13
2018-11-04T21:16:55.015Z,98362.58
2018-11-04T21:19:22.601Z,98359.09
2018-11-04T21:21:50.143Z,98360.81
2018-11-04T21:24:17.438Z,98366.31
2018-11-04T21:26:45.070Z,98361.80
2018-11-04T21:29:12.519Z,98358.11
2018-11-04T21:31:39.673Z,98359.66
2018-11-04T21:34:07.016Z,98349.07
2018-11-04T21:36:34.407Z,98366.13
2018-11-04T21:39:01.867Z,98354.77
2018-11-04T21:41:29.326Z,98351.34
2018-11-04T21:43:56.854Z,98355.31
2018-11-04T21:46:24.020Z,98348.30
2018-11-04T21:48:51.915Z,98339.97
2018-11-04T21:51:19.255Z,98337.34
2018-11-04T21:53:46.599Z,98336.45
2018-11-04T21:56:14.031Z,98341.28
2018-11-04T21:58:41.300Z,98346.03
2018-11-04T22:01:08.641Z,98345.22
2018-11-04T22:03:35.962Z,98334.22
2018-11-04T22:06:03.426Z,98338.98
2018-11-04T22:08:31.328Z,98345.59
2018-11-04T22:10:59.151Z,98339.06
2018-11-04T22:13:26.443Z,98344.31
2018-11-04T22:15:53.709Z,98347.84
2018-11-04T22:18:20.979Z,98346.53
2018-11-04T22:20:48.261Z,98338.21
2018-11-04T22:23:15.495Z,98334.27
2018-11-04T22:25:42.760Z,98321.19
2018-11-04T22:28:10.395Z,98317.66
2018-11-04T22:30:37.735Z,98315.13
2018-11-04T22:33:05.006Z,98310.81
2018-11-04T22:35:32.264Z,98313.05
2018-11-04T22:37:59.505Z,98318.20
2018-11-04T22:40:26.809Z,98327.38
2018-11-04T22:42:54.101Z,98317.39
2018-11-04T22:45:21.372Z,98309.52
2018-11-04T22:47:48.651Z,98302.13
2018-11-04T22:50:16.064Z,98306.56
2018-11-04T22:52:43.808Z,98308.78
2018-11-04T22:55:11.981Z,98299.96
2018-11-04T22:57:39.248Z,98296.03
2018-11-04T23:00:13.040Z,98282.12
2018-11-04T23:02:40.296Z,98269.05
2018-11-04T23:05:13.349Z,98274.75
2018-11-04T23:07:40.623Z,98289.19
2018-11-04T23:10:08.029Z,98303.63
2018-11-04T23:12:35.259Z,98302.71
2018-11-04T23:15:02.538Z,98297.91
2018-11-04T23:17:29.808Z,98299.19
2018-11-04T23:19:57.144Z,98298.65
2018-11-04T23:22:24.396Z,98290.33
2018-11-04T23:24:51.747Z,98288.97
2018-11-04T23:27:19.066Z,98301.69
2018-11-04T23:29:46.373Z,98295.98
2018-11-04T23:32:13.678Z,98287.20
2018-11-04T23:34:40.997Z,98299.42
2018-11-04T23:37:09.057Z,98294.13
2018-11-04T23:39:36.355Z,98284.98
2018-11-04T23:42:03.822Z,98271.91
2018-11-04T23:44:31.133Z,98258.42
2018-11-04T23:46:58.399Z,98257.16
2018-11-04T23:49:25.716Z,98254.61
2018-11-04T23:51:53.018Z,98258.11
2018-11-04T23:54:20.270Z,98254.67
2018-11-04T23:56:47.583Z,98255.66
2018-11-04T23:59:14.872Z,98254.30
